»·PEaware :: WAT463 KSAC-KMRY

WAT463 :: KSAC-KMRY

FLIGHT INFORMATION

Flight Status: Arrived
Operator:
Walker Air Transport
More flights by this operator :: More flights under this callsign
Pilot: Dan S. (31216)
Aircraft: CESSNA 182 SKYLANE
(C182)
More flights by this aircraft type
Origin: KSAC Sacramento Executive
United States
Destination: KMRY Monterey Peninsula
United States
More flights between these airports :: More routes between these airports
Route: THORN MOD V111 SNS
File this flight plan on PilotEdge
Remarks:
Altitude:
(Current/Filed)
7,000ft
Speed:
(Current/Filed)
140kts
Departed: 15-Nov-21 05:58 PM
Arrived: 15-Nov-21 07:16 PM
Distance/Time
Traveled:
117nm/1:17
Distance/Time
To Go:
Arrived

Flight Plot

Page will automatically refresh every two minutes.

Flight plan parsing failed; only flown route is shown


Map Options




Map Legend


Flown Route
Filed Route
Departure Airport
Arrival Airport
Navaid (VOR, NDB)
Fix

Horizontal Profiles

Position Reports

Time Latitude Longitude Heading Altitude Ground
Speed
15-Nov-21 17:40 38.513764 -121.497294 0 29ft 0kts
15-Nov-21 17:41 38.513764 -121.497294 213 29ft 0kts
15-Nov-21 17:43 38.513764 -121.497294 213 29ft 0kts
15-Nov-21 17:44 38.513764 -121.497294 213 29ft 0kts
15-Nov-21 17:45 38.513764 -121.497294 213 29ft 0kts
15-Nov-21 17:46 38.513764 -121.497294 213 29ft 0kts
15-Nov-21 17:47 38.513764 -121.497294 213 29ft 0kts
15-Nov-21 17:48 38.513764 -121.497294 213 29ft 0kts
15-Nov-21 17:49 38.513764 -121.497294 213 29ft 0kts
15-Nov-21 17:50 38.513764 -121.497294 213 29ft 0kts
15-Nov-21 17:51 38.513764 -121.497294 213 29ft 0kts
15-Nov-21 17:52 38.513764 -121.497294 213 29ft 0kts
15-Nov-21 17:53 38.513759 -121.497297 209 29ft 1kts
15-Nov-21 17:54 38.511457 -121.497190 214 29ft 18kts
15-Nov-21 17:55 38.505829 -121.501371 157 29ft 0kts
15-Nov-21 17:56 38.505829 -121.501371 157 29ft 0kts
15-Nov-21 17:57 38.505829 -121.501371 157 29ft 0kts
15-Nov-21 17:58 38.506542 -121.499646 34 29ft 48kts
15-Nov-21 17:59 38.528082 -121.488670 319 854ft 91kts
15-Nov-21 18:00 38.530643 -121.520555 263 1920ft 86kts
15-Nov-21 18:01 38.528923 -121.550890 263 2832ft 86kts
15-Nov-21 18:02 38.521885 -121.577577 194 3577ft 91kts
15-Nov-21 18:03 38.505151 -121.551472 117 4241ft 108kts
15-Nov-21 18:04 38.492162 -121.515669 118 4866ft 112kts
15-Nov-21 18:05 38.478835 -121.479248 119 5505ft 114kts
15-Nov-21 18:06 38.465283 -121.442385 119 6143ft 115kts
15-Nov-21 18:06 38.453824 -121.411292 120 6690ft 117kts
15-Nov-21 18:08 38.435788 -121.362775 119 7001ft 146kts
15-Nov-21 18:09 38.417903 -121.314145 119 6989ft 153kts
15-Nov-21 18:10 38.399664 -121.264866 119 6989ft 153kts
15-Nov-21 18:10 38.384491 -121.223914 120 6990ft 153kts
15-Nov-21 18:11 38.366385 -121.175204 120 6989ft 151kts
15-Nov-21 18:12 38.348362 -121.126786 120 6990ft 151kts
15-Nov-21 18:14 38.326515 -121.072665 153 7083ft 140kts
15-Nov-21 18:15 38.289988 -121.061305 176 7090ft 135kts
15-Nov-21 18:15 38.259024 -121.055585 178 7090ft 135kts
15-Nov-21 18:16 38.221586 -121.049494 178 7090ft 136kts
15-Nov-21 18:17 38.183960 -121.043604 178 7090ft 136kts
15-Nov-21 18:18 38.146259 -121.037751 178 7090ft 137kts
15-Nov-21 18:19 38.107709 -121.031786 178 6989ft 139kts
15-Nov-21 18:20 38.069605 -121.025883 178 6989ft 137kts
15-Nov-21 18:21 38.031821 -121.020048 178 6989ft 137kts
15-Nov-21 18:22 37.993966 -121.014206 178 6989ft 137kts
15-Nov-21 18:23 37.956180 -121.008382 178 6989ft 137kts
15-Nov-21 18:24 37.918482 -121.002575 178 6989ft 137kts
15-Nov-21 18:25 37.880564 -120.996742 178 6991ft 137kts
15-Nov-21 18:26 37.842703 -120.990923 178 6997ft 137kts
15-Nov-21 18:27 37.804877 -120.985116 178 7000ft 137kts
15-Nov-21 18:28 37.766917 -120.979294 178 7000ft 137kts
15-Nov-21 18:29 37.729090 -120.973550 177 7000ft 138kts
15-Nov-21 18:30 37.690581 -120.967619 177 7000ft 139kts
15-Nov-21 18:31 37.652003 -120.961709 177 7000ft 140kts
15-Nov-21 18:32 37.615304 -120.968036 209 7000ft 134kts
15-Nov-21 18:33 37.581877 -120.989257 210 7000ft 134kts
15-Nov-21 18:34 37.548908 -121.011307 211 7000ft 134kts
15-Nov-21 18:35 37.515921 -121.033589 211 6999ft 134kts
15-Nov-21 18:36 37.483041 -121.055831 211 6999ft 134kts
15-Nov-21 18:37 37.449993 -121.078176 211 6999ft 134kts
15-Nov-21 18:38 37.417121 -121.100382 211 6999ft 134kts
15-Nov-21 18:39 37.384200 -121.122599 211 6999ft 134kts
15-Nov-21 18:40 37.351341 -121.144752 211 6999ft 134kts
15-Nov-21 18:41 37.318374 -121.166954 211 6999ft 134kts
15-Nov-21 18:42 37.285495 -121.189076 211 6999ft 134kts
15-Nov-21 18:43 37.252644 -121.211160 211 6999ft 134kts
15-Nov-21 18:44 37.219905 -121.233140 211 7008ft 133kts
15-Nov-21 18:45 37.187310 -121.255005 211 7008ft 132kts
15-Nov-21 18:46 37.154790 -121.276799 212 7008ft 133kts
15-Nov-21 18:47 37.121999 -121.298765 211 6998ft 133kts
15-Nov-21 18:48 37.089360 -121.320603 212 6998ft 133kts
15-Nov-21 18:49 37.056771 -121.342388 212 6998ft 133kts
15-Nov-21 18:50 37.024113 -121.364192 211 6998ft 133kts
15-Nov-21 18:51 37.008937 -121.403188 253 6998ft 129kts
15-Nov-21 18:52 36.998832 -121.446332 253 6998ft 129kts
15-Nov-21 18:53 36.988837 -121.489161 253 7016ft 129kts
15-Nov-21 18:54 36.978746 -121.532400 253 7016ft 129kts
15-Nov-21 18:55 36.968696 -121.575472 253 7016ft 129kts
15-Nov-21 18:56 36.958466 -121.618524 245 7013ft 129kts
15-Nov-21 18:57 36.933007 -121.651001 227 6997ft 131kts
15-Nov-21 18:58 36.907545 -121.683338 227 7009ft 131kts
15-Nov-21 18:59 36.881945 -121.715888 227 7010ft 131kts
15-Nov-21 19:00 36.854881 -121.750265 227 6651ft 143kts
15-Nov-21 19:01 36.826569 -121.786164 228 6242ft 146kts
15-Nov-21 19:02 36.797867 -121.822546 227 5824ft 148kts
15-Nov-21 19:03 36.768802 -121.859338 227 5400ft 149kts
15-Nov-21 19:04 36.739021 -121.897010 227 4966ft 150kts
15-Nov-21 19:05 36.708294 -121.935793 227 4519ft 151kts
15-Nov-21 19:06 36.678534 -121.973333 227 4084ft 150kts
15-Nov-21 19:07 36.649824 -122.009490 227 3684ft 139kts
15-Nov-21 19:08 36.635172 -122.054468 259 3083ft 135kts
15-Nov-21 19:09 36.658286 -122.060132 74 2852ft 147kts
15-Nov-21 19:10 36.644209 -122.013470 116 2599ft 141kts
15-Nov-21 19:11 36.628795 -121.968310 114 2180ft 142kts
15-Nov-21 19:12 36.613693 -121.923478 114 1439ft 138kts
15-Nov-21 19:13 36.601095 -121.886071 114 814ft 94kts
15-Nov-21 19:14 36.592502 -121.860679 113 387ft 68kts
15-Nov-21 19:15 36.588367 -121.850539 196 260ft 0kts
15-Nov-21 19:16 36.588747 -121.853367 237 260ft 13kts
15-Nov-21 19:17 36.588767 -121.853755 300 260ft 0kts
15-Nov-21 19:18 36.588767 -121.853755 300 260ft 0kts

Navigation Log

Ident Type
Flight plan parsing failed, navigation log unavailable